sensor_id;sensor_type;location;lat;lon;timestamp;P1;durP1;ratioP1;P2;durP2;ratioP2
5379;SDS011;2713;42.680;23.310;2023-03-11T00:02:12;9.10;;;7.50;;
5379;SDS011;2713;42.680;23.310;2023-03-11T00:04:39;8.50;;;6.70;;
5379;SDS011;2713;42.680;23.310;2023-03-11T00:07:10;3.87;;;3.47;;
5379;SDS011;2713;42.680;23.310;2023-03-11T00:09:37;2.63;;;2.43;;
5379;SDS011;2713;42.680;23.310;2023-03-11T00:12:04;3.00;;;1.73;;
5379;SDS011;2713;42.680;23.310;2023-03-11T00:14:33;1.77;;;1.30;;
5379;SDS011;2713;42.680;23.310;2023-03-11T00:17:00;1.70;;;1.60;;
5379;SDS011;2713;42.680;23.310;2023-03-11T00:19:26;1.40;;;1.30;;
5379;SDS011;2713;42.680;23.310;2023-03-11T00:21:53;1.27;;;1.17;;
5379;SDS011;2713;42.680;23.310;2023-03-11T00:24:20;1.07;;;0.97;;
5379;SDS011;2713;42.680;23.310;2023-03-11T00:26:47;0.77;;;0.77;;
5379;SDS011;2713;42.680;23.310;2023-03-11T00:29:14;1.10;;;0.93;;
5379;SDS011;2713;42.680;23.310;2023-03-11T00:31:42;0.80;;;0.70;;
5379;SDS011;2713;42.680;23.310;2023-03-11T00:34:09;1.30;;;0.80;;
5379;SDS011;2713;42.680;23.310;2023-03-11T00:36:36;0.83;;;0.80;;
5379;SDS011;2713;42.680;23.310;2023-03-11T00:39:03;0.90;;;0.80;;
5379;SDS011;2713;42.680;23.310;2023-03-11T00:41:31;1.00;;;0.80;;
5379;SDS011;2713;42.680;23.310;2023-03-11T00:43:58;0.90;;;0.80;;
5379;SDS011;2713;42.680;23.310;2023-03-11T00:46:25;1.30;;;1.10;;
5379;SDS011;2713;42.680;23.310;2023-03-11T00:48:55;1.30;;;1.20;;
5379;SDS011;2713;42.680;23.310;2023-03-11T00:51:22;0.83;;;0.83;;
5379;SDS011;2713;42.680;23.310;2023-03-11T00:53:49;1.20;;;1.00;;
5379;SDS011;2713;42.680;23.310;2023-03-11T00:56:16;2.07;;;0.83;;
5379;SDS011;2713;42.680;23.310;2023-03-11T00:58:43;1.63;;;1.03;;
5379;SDS011;2713;42.680;23.310;2023-03-11T01:01:11;1.10;;;0.87;;
5379;SDS011;2713;42.680;23.310;2023-03-11T01:03:40;1.10;;;1.00;;
5379;SDS011;2713;42.680;23.310;2023-03-11T01:06:10;1.27;;;1.00;;
5379;SDS011;2713;42.680;23.310;2023-03-11T01:08:38;1.10;;;1.00;;
5379;SDS011;2713;42.680;23.310;2023-03-11T01:11:05;4.13;;;1.50;;
5379;SDS011;2713;42.680;23.310;2023-03-11T01:13:33;1.40;;;1.07;;
5379;SDS011;2713;42.680;23.310;2023-03-11T01:16:00;1.37;;;1.00;;
5379;SDS011;2713;42.680;23.310;2023-03-11T01:18:27;1.20;;;1.10;;
5379;SDS011;2713;42.680;23.310;2023-03-11T01:20:54;3.23;;;0.90;;
5379;SDS011;2713;42.680;23.310;2023-03-11T01:23:22;1.47;;;1.00;;
5379;SDS011;2713;42.680;23.310;2023-03-11T01:25:49;1.10;;;0.90;;
5379;SDS011;2713;42.680;23.310;2023-03-11T01:28:17;1.20;;;1.10;;
5379;SDS011;2713;42.680;23.310;2023-03-11T01:30:43;1.20;;;1.10;;
5379;SDS011;2713;42.680;23.310;2023-03-11T01:33:12;1.40;;;1.30;;
5379;SDS011;2713;42.680;23.310;2023-03-11T01:35:41;1.43;;;1.30;;
5379;SDS011;2713;42.680;23.310;2023-03-11T01:38:08;1.57;;;1.47;;
5379;SDS011;2713;42.680;23.310;2023-03-11T01:40:37;1.53;;;1.43;;
5379;SDS011;2713;42.680;23.310;2023-03-11T01:46:07;3.80;;;1.53;;
5379;SDS011;2713;42.680;23.310;2023-03-11T01:48:37;1.90;;;1.70;;
5379;SDS011;2713;42.680;23.310;2023-03-11T01:51:04;1.37;;;1.27;;
5379;SDS011;2713;42.680;23.310;2023-03-11T01:53:32;1.50;;;1.03;;
5379;SDS011;2713;42.680;23.310;2023-03-11T01:56:01;1.63;;;1.53;;
5379;SDS011;2713;42.680;23.310;2023-03-11T01:58:31;1.43;;;1.30;;
5379;SDS011;2713;42.680;23.310;2023-03-11T02:01:01;1.30;;;1.20;;
5379;SDS011;2713;42.680;23.310;2023-03-11T02:03:30;3.80;;;1.30;;
5379;SDS011;2713;42.680;23.310;2023-03-11T02:05:59;1.47;;;1.37;;
5379;SDS011;2713;42.680;23.310;2023-03-11T02:08:28;1.73;;;1.63;;
5379;SDS011;2713;42.680;23.310;2023-03-11T02:10:58;1.50;;;1.40;;
5379;SDS011;2713;42.680;23.310;2023-03-11T02:13:29;2.00;;;1.90;;
5379;SDS011;2713;42.680;23.310;2023-03-11T02:15:58;1.83;;;1.73;;
5379;SDS011;2713;42.680;23.310;2023-03-11T02:18:26;1.70;;;1.60;;
5379;SDS011;2713;42.680;23.310;2023-03-11T02:20:53;1.70;;;1.60;;
5379;SDS011;2713;42.680;23.310;2023-03-11T02:23:29;1.93;;;1.83;;
5379;SDS011;2713;42.680;23.310;2023-03-11T02:26:05;1.80;;;1.70;;
5379;SDS011;2713;42.680;23.310;2023-03-11T02:28:38;1.87;;;1.77;;
5379;SDS011;2713;42.680;23.310;2023-03-11T02:31:06;2.17;;;1.80;;
5379;SDS011;2713;42.680;23.310;2023-03-11T02:33:34;1.90;;;1.80;;
5379;SDS011;2713;42.680;23.310;2023-03-11T02:36:02;2.00;;;1.90;;
5379;SDS011;2713;42.680;23.310;2023-03-11T02:38:29;1.70;;;1.60;;
5379;SDS011;2713;42.680;23.310;2023-03-11T02:40:57;1.70;;;1.60;;
5379;SDS011;2713;42.680;23.310;2023-03-11T02:43:30;1.40;;;1.30;;
5379;SDS011;2713;42.680;23.310;2023-03-11T02:46:04;1.70;;;1.60;;
5379;SDS011;2713;42.680;23.310;2023-03-11T02:48:34;1.53;;;1.43;;
5379;SDS011;2713;42.680;23.310;2023-03-11T02:51:02;1.10;;;1.00;;
5379;SDS011;2713;42.680;23.310;2023-03-11T02:53:29;1.40;;;0.90;;
5379;SDS011;2713;42.680;23.310;2023-03-11T02:55:58;0.80;;;0.80;;
5379;SDS011;2713;42.680;23.310;2023-03-11T02:58:25;1.07;;;0.97;;
5379;SDS011;2713;42.680;23.310;2023-03-11T03:00:52;1.20;;;1.10;;
5379;SDS011;2713;42.680;23.310;2023-03-11T03:03:20;1.00;;;0.90;;
5379;SDS011;2713;42.680;23.310;2023-03-11T03:05:47;1.97;;;1.10;;
5379;SDS011;2713;42.680;23.310;2023-03-11T03:08:14;0.93;;;0.83;;
5379;SDS011;2713;42.680;23.310;2023-03-11T03:10:41;1.83;;;0.90;;
5379;SDS011;2713;42.680;23.310;2023-03-11T03:13:08;1.20;;;0.90;;
5379;SDS011;2713;42.680;23.310;2023-03-11T03:15:34;0.70;;;0.70;;
5379;SDS011;2713;42.680;23.310;2023-03-11T03:18:01;1.73;;;0.90;;
5379;SDS011;2713;42.680;23.310;2023-03-11T03:20:29;0.80;;;0.80;;
5379;SDS011;2713;42.680;23.310;2023-03-11T03:22:59;0.83;;;0.83;;
5379;SDS011;2713;42.680;23.310;2023-03-11T03:25:29;0.70;;;0.70;;
5379;SDS011;2713;42.680;23.310;2023-03-11T03:27:59;0.80;;;0.80;;
5379;SDS011;2713;42.680;23.310;2023-03-11T03:30:27;0.70;;;0.60;;
5379;SDS011;2713;42.680;23.310;2023-03-11T03:32:54;0.90;;;0.90;;
5379;SDS011;2713;42.680;23.310;2023-03-11T03:35:21;0.97;;;0.87;;
5379;SDS011;2713;42.680;23.310;2023-03-11T03:38:09;0.80;;;0.80;;
5379;SDS011;2713;42.680;23.310;2023-03-11T03:40:37;0.80;;;0.80;;
5379;SDS011;2713;42.680;23.310;2023-03-11T03:43:05;0.80;;;0.80;;
5379;SDS011;2713;42.680;23.310;2023-03-11T03:45:33;0.83;;;0.70;;
5379;SDS011;2713;42.680;23.310;2023-03-11T03:48:00;1.10;;;0.50;;
5379;SDS011;2713;42.680;23.310;2023-03-11T03:50:31;0.70;;;0.70;;
5379;SDS011;2713;42.680;23.310;2023-03-11T03:52:59;0.70;;;0.50;;
5379;SDS011;2713;42.680;23.310;2023-03-11T03:55:27;0.67;;;0.50;;
5379;SDS011;2713;42.680;23.310;2023-03-11T03:57:56;0.80;;;0.60;;
5379;SDS011;2713;42.680;23.310;2023-03-11T04:00:26;0.80;;;0.70;;
5379;SDS011;2713;42.680;23.310;2023-03-11T04:02:57;0.70;;;0.60;;
5379;SDS011;2713;42.680;23.310;2023-03-11T04:05:33;1.20;;;0.60;;
5379;SDS011;2713;42.680;23.310;2023-03-11T04:08:00;0.70;;;0.60;;
5379;SDS011;2713;42.680;23.310;2023-03-11T04:10:28;0.70;;;0.50;;
5379;SDS011;2713;42.680;23.310;2023-03-11T04:12:55;1.03;;;0.67;;
5379;SDS011;2713;42.680;23.310;2023-03-11T04:15:23;0.90;;;0.80;;
5379;SDS011;2713;42.680;23.310;2023-03-11T04:17:51;0.70;;;0.60;;
5379;SDS011;2713;42.680;23.310;2023-03-11T04:20:18;0.77;;;0.70;;
5379;SDS011;2713;42.680;23.310;2023-03-11T04:22:47;0.80;;;0.63;;
5379;SDS011;2713;42.680;23.310;2023-03-11T04:25:15;0.70;;;0.60;;
5379;SDS011;2713;42.680;23.310;2023-03-11T04:27:44;0.80;;;0.80;;
5379;SDS011;2713;42.680;23.310;2023-03-11T04:30:14;1.00;;;0.80;;
5379;SDS011;2713;42.680;23.310;2023-03-11T04:32:43;2.40;;;0.60;;
5379;SDS011;2713;42.680;23.310;2023-03-11T04:35:10;0.70;;;0.60;;
5379;SDS011;2713;42.680;23.310;2023-03-11T04:37:38;0.70;;;0.70;;
5379;SDS011;2713;42.680;23.310;2023-03-11T04:40:05;0.70;;;0.70;;
5379;SDS011;2713;42.680;23.310;2023-03-11T04:42:34;1.00;;;0.60;;
5379;SDS011;2713;42.680;23.310;2023-03-11T04:45:03;0.80;;;0.60;;
5379;SDS011;2713;42.680;23.310;2023-03-11T04:47:30;0.83;;;0.70;;
5379;SDS011;2713;42.680;23.310;2023-03-11T04:49:57;0.70;;;0.67;;
5379;SDS011;2713;42.680;23.310;2023-03-11T04:52:24;1.07;;;0.70;;
5379;SDS011;2713;42.680;23.310;2023-03-11T04:54:51;0.80;;;0.50;;
5379;SDS011;2713;42.680;23.310;2023-03-11T04:57:18;1.00;;;0.60;;
5379;SDS011;2713;42.680;23.310;2023-03-11T04:59:46;0.80;;;0.63;;
5379;SDS011;2713;42.680;23.310;2023-03-11T05:02:15;2.40;;;0.63;;
5379;SDS011;2713;42.680;23.310;2023-03-11T05:04:49;0.80;;;0.70;;
5379;SDS011;2713;42.680;23.310;2023-03-11T05:07:16;1.23;;;0.80;;
5379;SDS011;2713;42.680;23.310;2023-03-11T05:09:44;0.70;;;0.60;;
5379;SDS011;2713;42.680;23.310;2023-03-11T05:12:11;0.90;;;0.77;;
5379;SDS011;2713;42.680;23.310;2023-03-11T05:14:40;0.70;;;0.57;;
5379;SDS011;2713;42.680;23.310;2023-03-11T05:17:07;0.70;;;0.60;;
5379;SDS011;2713;42.680;23.310;2023-03-11T05:19:37;1.20;;;0.60;;
5379;SDS011;2713;42.680;23.310;2023-03-11T05:22:10;0.70;;;0.50;;
5379;SDS011;2713;42.680;23.310;2023-03-11T05:24:38;0.70;;;0.60;;
5379;SDS011;2713;42.680;23.310;2023-03-11T05:27:05;0.70;;;0.50;;
5379;SDS011;2713;42.680;23.310;2023-03-11T05:29:34;1.20;;;0.90;;
5379;SDS011;2713;42.680;23.310;2023-03-11T05:32:01;0.97;;;0.77;;
5379;SDS011;2713;42.680;23.310;2023-03-11T05:34:28;1.57;;;0.70;;
5379;SDS011;2713;42.680;23.310;2023-03-11T05:36:56;1.00;;;0.90;;
5379;SDS011;2713;42.680;23.310;2023-03-11T05:39:23;1.03;;;0.93;;
5379;SDS011;2713;42.680;23.310;2023-03-11T05:41:50;1.70;;;1.60;;
5379;SDS011;2713;42.680;23.310;2023-03-11T05:44:17;0.97;;;0.87;;
5379;SDS011;2713;42.680;23.310;2023-03-11T05:46:43;1.07;;;0.90;;
5379;SDS011;2713;42.680;23.310;2023-03-11T05:49:10;0.90;;;0.80;;
5379;SDS011;2713;42.680;23.310;2023-03-11T05:51:37;1.40;;;0.80;;
5379;SDS011;2713;42.680;23.310;2023-03-11T05:54:06;1.07;;;0.97;;
5379;SDS011;2713;42.680;23.310;2023-03-11T05:56:39;1.17;;;0.90;;
5379;SDS011;2713;42.680;23.310;2023-03-11T05:59:06;1.43;;;1.13;;
5379;SDS011;2713;42.680;23.310;2023-03-11T06:01:35;0.83;;;0.83;;
5379;SDS011;2713;42.680;23.310;2023-03-11T06:04:02;2.50;;;0.90;;
5379;SDS011;2713;42.680;23.310;2023-03-11T06:06:29;0.80;;;0.80;;
5379;SDS011;2713;42.680;23.310;2023-03-11T06:08:56;1.20;;;1.00;;
5379;SDS011;2713;42.680;23.310;2023-03-11T06:11:27;1.40;;;0.90;;
5379;SDS011;2713;42.680;23.310;2023-03-11T06:13:55;1.00;;;0.90;;
5379;SDS011;2713;42.680;23.310;2023-03-11T06:16:25;1.00;;;0.90;;
5379;SDS011;2713;42.680;23.310;2023-03-11T06:18:56;1.13;;;1.03;;
5379;SDS011;2713;42.680;23.310;2023-03-11T06:21:28;0.90;;;0.90;;
5379;SDS011;2713;42.680;23.310;2023-03-11T06:23:55;1.17;;;1.07;;
5379;SDS011;2713;42.680;23.310;2023-03-11T06:26:23;1.37;;;0.97;;
5379;SDS011;2713;42.680;23.310;2023-03-11T06:28:52;0.80;;;0.80;;
5379;SDS011;2713;42.680;23.310;2023-03-11T06:31:19;1.20;;;1.07;;
5379;SDS011;2713;42.680;23.310;2023-03-11T06:33:48;0.80;;;0.80;;
5379;SDS011;2713;42.680;23.310;2023-03-11T06:36:15;1.20;;;1.10;;
5379;SDS011;2713;42.680;23.310;2023-03-11T06:38:43;5.47;;;4.47;;
5379;SDS011;2713;42.680;23.310;2023-03-11T06:41:11;3.33;;;2.07;;
5379;SDS011;2713;42.680;23.310;2023-03-11T06:43:38;1.50;;;1.37;;
5379;SDS011;2713;42.680;23.310;2023-03-11T06:46:11;1.00;;;0.90;;
5379;SDS011;2713;42.680;23.310;2023-03-11T06:48:39;1.07;;;1.00;;
5379;SDS011;2713;42.680;23.310;2023-03-11T06:51:06;1.30;;;1.20;;
5379;SDS011;2713;42.680;23.310;2023-03-11T06:53:33;1.80;;;1.57;;
5379;SDS011;2713;42.680;23.310;2023-03-11T06:56:00;1.53;;;1.30;;
5379;SDS011;2713;42.680;23.310;2023-03-11T06:58:31;1.13;;;1.03;;
5379;SDS011;2713;42.680;23.310;2023-03-11T07:00:59;2.07;;;1.70;;
5379;SDS011;2713;42.680;23.310;2023-03-11T07:03:29;3.57;;;3.27;;
5379;SDS011;2713;42.680;23.310;2023-03-11T07:05:56;1.10;;;1.00;;
5379;SDS011;2713;42.680;23.310;2023-03-11T07:08:23;1.13;;;1.03;;
5379;SDS011;2713;42.680;23.310;2023-03-11T07:11:00;1.30;;;1.20;;
5379;SDS011;2713;42.680;23.310;2023-03-11T07:13:29;1.77;;;1.00;;
5379;SDS011;2713;42.680;23.310;2023-03-11T07:16:00;1.83;;;1.20;;
5379;SDS011;2713;42.680;23.310;2023-03-11T07:18:29;1.20;;;1.10;;
5379;SDS011;2713;42.680;23.310;2023-03-11T07:20:56;1.17;;;1.07;;
5379;SDS011;2713;42.680;23.310;2023-03-11T07:23:23;1.93;;;1.70;;
5379;SDS011;2713;42.680;23.310;2023-03-11T07:25:50;1.90;;;1.80;;
5379;SDS011;2713;42.680;23.310;2023-03-11T07:28:19;2.93;;;1.47;;
5379;SDS011;2713;42.680;23.310;2023-03-11T07:30:46;1.80;;;1.60;;
5379;SDS011;2713;42.680;23.310;2023-03-11T07:33:13;1.43;;;1.33;;
5379;SDS011;2713;42.680;23.310;2023-03-11T07:35:42;1.73;;;1.50;;
5379;SDS011;2713;42.680;23.310;2023-03-11T07:38:09;1.40;;;1.30;;
5379;SDS011;2713;42.680;23.310;2023-03-11T07:40:36;1.43;;;1.00;;
5379;SDS011;2713;42.680;23.310;2023-03-11T07:43:03;1.67;;;1.03;;
5379;SDS011;2713;42.680;23.310;2023-03-11T07:45:30;1.00;;;0.90;;
5379;SDS011;2713;42.680;23.310;2023-03-11T07:47:56;1.10;;;1.00;;
5379;SDS011;2713;42.680;23.310;2023-03-11T07:50:23;1.93;;;1.20;;
5379;SDS011;2713;42.680;23.310;2023-03-11T07:52:51;2.00;;;1.00;;
5379;SDS011;2713;42.680;23.310;2023-03-11T07:55:18;1.97;;;1.63;;
5379;SDS011;2713;42.680;23.310;2023-03-11T07:57:45;1.97;;;1.13;;
5379;SDS011;2713;42.680;23.310;2023-03-11T08:00:16;2.03;;;1.10;;
5379;SDS011;2713;42.680;23.310;2023-03-11T08:02:43;1.90;;;1.60;;
5379;SDS011;2713;42.680;23.310;2023-03-11T08:05:10;2.13;;;1.30;;
5379;SDS011;2713;42.680;23.310;2023-03-11T08:07:37;2.00;;;1.50;;
5379;SDS011;2713;42.680;23.310;2023-03-11T08:10:06;2.23;;;2.03;;
5379;SDS011;2713;42.680;23.310;2023-03-11T08:12:33;1.73;;;1.63;;
5379;SDS011;2713;42.680;23.310;2023-03-11T08:15:00;1.90;;;1.70;;
5379;SDS011;2713;42.680;23.310;2023-03-11T08:17:27;2.23;;;2.03;;
5379;SDS011;2713;42.680;23.310;2023-03-11T08:19:53;1.43;;;1.30;;
5379;SDS011;2713;42.680;23.310;2023-03-11T08:22:20;1.83;;;1.20;;
5379;SDS011;2713;42.680;23.310;2023-03-11T08:24:49;1.30;;;1.20;;
5379;SDS011;2713;42.680;23.310;2023-03-11T08:27:18;1.67;;;1.30;;
5379;SDS011;2713;42.680;23.310;2023-03-11T08:29:45;0.93;;;0.90;;
5379;SDS011;2713;42.680;23.310;2023-03-11T08:32:12;3.70;;;1.70;;
5379;SDS011;2713;42.680;23.310;2023-03-11T08:34:39;1.30;;;1.20;;
5379;SDS011;2713;42.680;23.310;2023-03-11T08:37:06;1.87;;;1.40;;
5379;SDS011;2713;42.680;23.310;2023-03-11T08:39:32;1.37;;;1.27;;
5379;SDS011;2713;42.680;23.310;2023-03-11T08:41:59;1.53;;;1.40;;
5379;SDS011;2713;42.680;23.310;2023-03-11T08:44:28;1.63;;;1.53;;
5379;SDS011;2713;42.680;23.310;2023-03-11T08:46:55;1.80;;;1.70;;
5379;SDS011;2713;42.680;23.310;2023-03-11T08:49:22;1.90;;;1.40;;
5379;SDS011;2713;42.680;23.310;2023-03-11T08:51:49;3.77;;;1.30;;
5379;SDS011;2713;42.680;23.310;2023-03-11T08:54:16;1.53;;;1.30;;
5379;SDS011;2713;42.680;23.310;2023-03-11T08:56:42;1.50;;;1.40;;
5379;SDS011;2713;42.680;23.310;2023-03-11T08:59:12;4.90;;;1.93;;
5379;SDS011;2713;42.680;23.310;2023-03-11T09:01:40;1.53;;;1.30;;
5379;SDS011;2713;42.680;23.310;2023-03-11T09:04:07;1.60;;;1.50;;
5379;SDS011;2713;42.680;23.310;2023-03-11T09:06:34;2.00;;;1.40;;
5379;SDS011;2713;42.680;23.310;2023-03-11T09:09:01;1.50;;;1.40;;
5379;SDS011;2713;42.680;23.310;2023-03-11T09:11:28;1.50;;;1.40;;
5379;SDS011;2713;42.680;23.310;2023-03-11T09:13:54;1.80;;;1.23;;
5379;SDS011;2713;42.680;23.310;2023-03-11T09:16:21;1.77;;;1.40;;
5379;SDS011;2713;42.680;23.310;2023-03-11T09:18:50;1.50;;;1.40;;
5379;SDS011;2713;42.680;23.310;2023-03-11T09:21:17;2.13;;;1.50;;
5379;SDS011;2713;42.680;23.310;2023-03-11T09:23:44;2.93;;;1.50;;
5379;SDS011;2713;42.680;23.310;2023-03-11T09:26:12;2.30;;;1.60;;
5379;SDS011;2713;42.680;23.310;2023-03-11T09:28:41;1.77;;;1.40;;
5379;SDS011;2713;42.680;23.310;2023-03-11T09:31:12;5.17;;;1.50;;
5379;SDS011;2713;42.680;23.310;2023-03-11T09:33:40;4.03;;;1.60;;
5379;SDS011;2713;42.680;23.310;2023-03-11T09:36:11;1.90;;;1.40;;
5379;SDS011;2713;42.680;23.310;2023-03-11T09:38:39;2.53;;;1.40;;
5379;SDS011;2713;42.680;23.310;2023-03-11T09:41:07;2.10;;;1.90;;
5379;SDS011;2713;42.680;23.310;2023-03-11T09:43:45;3.83;;;2.80;;
5379;SDS011;2713;42.680;23.310;2023-03-11T09:46:27;15.50;;;6.70;;
5379;SDS011;2713;42.680;23.310;2023-03-11T09:49:07;1.50;;;1.40;;
5379;SDS011;2713;42.680;23.310;2023-03-11T09:51:44;3.07;;;1.50;;
5379;SDS011;2713;42.680;23.310;2023-03-11T09:54:15;2.57;;;1.80;;
5379;SDS011;2713;42.680;23.310;2023-03-11T09:56:43;1.87;;;1.50;;
5379;SDS011;2713;42.680;23.310;2023-03-11T09:59:13;2.53;;;1.50;;
5379;SDS011;2713;42.680;23.310;2023-03-11T10:01:43;2.73;;;1.30;;
5379;SDS011;2713;42.680;23.310;2023-03-11T10:04:13;1.70;;;1.60;;
5379;SDS011;2713;42.680;23.310;2023-03-11T10:06:46;1.60;;;1.50;;
5379;SDS011;2713;42.680;23.310;2023-03-11T10:09:20;2.27;;;1.20;;
5379;SDS011;2713;42.680;23.310;2023-03-11T10:12:00;2.10;;;1.00;;
5379;SDS011;2713;42.680;23.310;2023-03-11T10:14:40;1.53;;;1.40;;
5379;SDS011;2713;42.680;23.310;2023-03-11T10:17:16;1.33;;;1.23;;
5379;SDS011;2713;42.680;23.310;2023-03-11T10:19:59;1.63;;;1.53;;
5379;SDS011;2713;42.680;23.310;2023-03-11T10:22:35;1.53;;;1.43;;
5379;SDS011;2713;42.680;23.310;2023-03-11T10:25:12;1.70;;;1.60;;
5379;SDS011;2713;42.680;23.310;2023-03-11T10:27:42;2.17;;;1.70;;
5379;SDS011;2713;42.680;23.310;2023-03-11T10:30:18;2.30;;;1.50;;
5379;SDS011;2713;42.680;23.310;2023-03-11T10:32:52;1.70;;;1.60;;
5379;SDS011;2713;42.680;23.310;2023-03-11T10:35:23;1.70;;;1.23;;
5379;SDS011;2713;42.680;23.310;2023-03-11T10:37:55;1.20;;;1.10;;
5379;SDS011;2713;42.680;23.310;2023-03-11T10:40:28;1.10;;;1.00;;
5379;SDS011;2713;42.680;23.310;2023-03-11T10:42:57;1.67;;;1.03;;
5379;SDS011;2713;42.680;23.310;2023-03-11T10:45:29;1.70;;;1.60;;
5379;SDS011;2713;42.680;23.310;2023-03-11T10:48:01;3.53;;;1.20;;
5379;SDS011;2713;42.680;23.310;2023-03-11T10:50:33;1.30;;;1.20;;
5379;SDS011;2713;42.680;23.310;2023-03-11T10:53:08;1.93;;;1.33;;
5379;SDS011;2713;42.680;23.310;2023-03-11T10:55:43;2.10;;;1.47;;
5379;SDS011;2713;42.680;23.310;2023-03-11T10:58:13;1.60;;;1.50;;
5379;SDS011;2713;42.680;23.310;2023-03-11T11:00:42;2.03;;;1.83;;
5379;SDS011;2713;42.680;23.310;2023-03-11T11:03:15;2.00;;;1.80;;
5379;SDS011;2713;42.680;23.310;2023-03-11T11:05:55;1.70;;;1.60;;
5379;SDS011;2713;42.680;23.310;2023-03-11T11:08:26;3.80;;;3.33;;
5379;SDS011;2713;42.680;23.310;2023-03-11T11:10:53;1.90;;;1.63;;
5379;SDS011;2713;42.680;23.310;2023-03-11T11:13:22;1.90;;;1.80;;
5379;SDS011;2713;42.680;23.310;2023-03-11T11:15:51;2.70;;;1.80;;
5379;SDS011;2713;42.680;23.310;2023-03-11T11:18:21;3.27;;;1.67;;
5379;SDS011;2713;42.680;23.310;2023-03-11T11:20:52;2.50;;;1.70;;
5379;SDS011;2713;42.680;23.310;2023-03-11T11:23:30;2.97;;;1.63;;
5379;SDS011;2713;42.680;23.310;2023-03-11T11:25:59;1.53;;;1.43;;
5379;SDS011;2713;42.680;23.310;2023-03-11T11:28:28;6.13;;;1.93;;
5379;SDS011;2713;42.680;23.310;2023-03-11T11:30:57;1.63;;;1.33;;
5379;SDS011;2713;42.680;23.310;2023-03-11T11:33:27;2.80;;;2.60;;
5379;SDS011;2713;42.680;23.310;2023-03-11T11:35:56;2.60;;;1.60;;
5379;SDS011;2713;42.680;23.310;2023-03-11T11:38:28;1.50;;;1.40;;
5379;SDS011;2713;42.680;23.310;2023-03-11T11:40:57;3.83;;;1.80;;
5379;SDS011;2713;42.680;23.310;2023-03-11T11:43:31;2.10;;;1.70;;
5379;SDS011;2713;42.680;23.310;2023-03-11T11:46:17;2.10;;;1.90;;
5379;SDS011;2713;42.680;23.310;2023-03-11T11:48:49;2.57;;;1.50;;
5379;SDS011;2713;42.680;23.310;2023-03-11T11:51:24;3.10;;;1.60;;
5379;SDS011;2713;42.680;23.310;2023-03-11T11:53:59;1.70;;;1.60;;
5379;SDS011;2713;42.680;23.310;2023-03-11T11:56:31;1.70;;;1.33;;
5379;SDS011;2713;42.680;23.310;2023-03-11T11:58:58;1.47;;;1.20;;
5379;SDS011;2713;42.680;23.310;2023-03-11T12:01:29;1.67;;;1.50;;
5379;SDS011;2713;42.680;23.310;2023-03-11T12:04:11;1.90;;;1.70;;
5379;SDS011;2713;42.680;23.310;2023-03-11T12:07:03;2.80;;;1.37;;
5379;SDS011;2713;42.680;23.310;2023-03-11T12:09:45;2.90;;;1.70;;
5379;SDS011;2713;42.680;23.310;2023-03-11T12:12:22;1.70;;;1.60;;
5379;SDS011;2713;42.680;23.310;2023-03-11T12:14:57;1.37;;;1.20;;
5379;SDS011;2713;42.680;23.310;2023-03-11T13:05:55;7.33;;;3.90;;
5379;SDS011;2713;42.680;23.310;2023-03-11T13:08:28;1.70;;;1.60;;
5379;SDS011;2713;42.680;23.310;2023-03-11T13:11:00;1.70;;;1.40;;
5379;SDS011;2713;42.680;23.310;2023-03-11T13:13:47;1.70;;;1.60;;
5379;SDS011;2713;42.680;23.310;2023-03-11T13:25:31;2.47;;;1.70;;
5379;SDS011;2713;42.680;23.310;2023-03-11T13:28:21;1.97;;;1.40;;
5379;SDS011;2713;42.680;23.310;2023-03-11T13:30:56;1.60;;;1.50;;
5379;SDS011;2713;42.680;23.310;2023-03-11T13:33:39;1.63;;;1.53;;
5379;SDS011;2713;42.680;23.310;2023-03-11T13:36:20;1.60;;;1.50;;
5379;SDS011;2713;42.680;23.310;2023-03-11T13:39:12;2.10;;;1.90;;
5379;SDS011;2713;42.680;23.310;2023-03-11T13:41:49;2.07;;;1.80;;
5379;SDS011;2713;42.680;23.310;2023-03-11T13:44:21;3.93;;;1.80;;
5379;SDS011;2713;42.680;23.310;2023-03-11T13:46:54;1.77;;;1.67;;
5379;SDS011;2713;42.680;23.310;2023-03-11T13:49:29;1.73;;;1.63;;
5379;SDS011;2713;42.680;23.310;2023-03-11T13:51:59;2.03;;;1.70;;
5379;SDS011;2713;42.680;23.310;2023-03-11T13:54:32;2.20;;;2.00;;
5379;SDS011;2713;42.680;23.310;2023-03-11T13:57:10;2.43;;;2.23;;
5379;SDS011;2713;42.680;23.310;2023-03-11T13:59:49;3.03;;;2.60;;
5379;SDS011;2713;42.680;23.310;2023-03-11T14:02:18;3.17;;;2.87;;
5379;SDS011;2713;42.680;23.310;2023-03-11T14:04:48;2.40;;;2.20;;
5379;SDS011;2713;42.680;23.310;2023-03-11T14:07:22;2.90;;;2.70;;
5379;SDS011;2713;42.680;23.310;2023-03-11T14:09:51;3.13;;;2.80;;
5379;SDS011;2713;42.680;23.310;2023-03-11T14:12:51;2.60;;;2.30;;
5379;SDS011;2713;42.680;23.310;2023-03-11T14:15:30;3.50;;;1.83;;
5379;SDS011;2713;42.680;23.310;2023-03-11T14:18:23;1.93;;;1.83;;
5379;SDS011;2713;42.680;23.310;2023-03-11T14:20:52;3.00;;;2.70;;
5379;SDS011;2713;42.680;23.310;2023-03-11T14:23:19;2.70;;;2.50;;
5379;SDS011;2713;42.680;23.310;2023-03-11T14:25:46;2.30;;;2.20;;
5379;SDS011;2713;42.680;23.310;2023-03-11T14:28:16;2.27;;;2.07;;
5379;SDS011;2713;42.680;23.310;2023-03-11T14:30:54;5.80;;;1.90;;
5379;SDS011;2713;42.680;23.310;2023-03-11T14:33:22;2.13;;;1.87;;
5379;SDS011;2713;42.680;23.310;2023-03-11T14:35:52;2.80;;;2.00;;
5379;SDS011;2713;42.680;23.310;2023-03-11T14:38:21;2.17;;;1.97;;
5379;SDS011;2713;42.680;23.310;2023-03-11T14:40:49;2.90;;;1.47;;
5379;SDS011;2713;42.680;23.310;2023-03-11T14:43:22;2.50;;;2.00;;
5379;SDS011;2713;42.680;23.310;2023-03-11T14:45:50;2.40;;;2.20;;
5379;SDS011;2713;42.680;23.310;2023-03-11T14:48:20;1.83;;;1.73;;
5379;SDS011;2713;42.680;23.310;2023-03-11T14:50:52;2.30;;;2.10;;
5379;SDS011;2713;42.680;23.310;2023-03-11T14:53:23;3.23;;;2.90;;
5379;SDS011;2713;42.680;23.310;2023-03-11T14:55:54;3.60;;;3.23;;
5379;SDS011;2713;42.680;23.310;2023-03-11T14:58:27;2.10;;;1.90;;
5379;SDS011;2713;42.680;23.310;2023-03-11T15:01:00;2.27;;;1.90;;
5379;SDS011;2713;42.680;23.310;2023-03-11T15:03:31;2.20;;;2.00;;
5379;SDS011;2713;42.680;23.310;2023-03-11T15:06:01;3.03;;;2.70;;
5379;SDS011;2713;42.680;23.310;2023-03-11T15:08:33;2.80;;;2.50;;
5379;SDS011;2713;42.680;23.310;2023-03-11T15:11:04;5.27;;;2.90;;
5379;SDS011;2713;42.680;23.310;2023-03-11T15:13:35;2.73;;;2.53;;
5379;SDS011;2713;42.680;23.310;2023-03-11T15:16:05;2.33;;;2.20;;
5379;SDS011;2713;42.680;23.310;2023-03-11T15:18:34;2.77;;;2.57;;
5379;SDS011;2713;42.680;23.310;2023-03-11T15:21:03;4.47;;;3.50;;
5379;SDS011;2713;42.680;23.310;2023-03-11T15:23:37;3.90;;;3.60;;
5379;SDS011;2713;42.680;23.310;2023-03-11T15:26:04;3.03;;;2.73;;
5379;SDS011;2713;42.680;23.310;2023-03-11T15:28:32;4.53;;;3.23;;
5379;SDS011;2713;42.680;23.310;2023-03-11T15:31:15;4.47;;;2.80;;
5379;SDS011;2713;42.680;23.310;2023-03-11T15:33:51;5.27;;;3.00;;
5379;SDS011;2713;42.680;23.310;2023-03-11T15:36:28;3.50;;;3.20;;
5379;SDS011;2713;42.680;23.310;2023-03-11T15:39:10;4.63;;;2.63;;
5379;SDS011;2713;42.680;23.310;2023-03-11T15:41:39;3.80;;;2.93;;
5379;SDS011;2713;42.680;23.310;2023-03-11T15:44:16;6.17;;;2.60;;
5379;SDS011;2713;42.680;23.310;2023-03-11T15:46:48;6.03;;;3.77;;
5379;SDS011;2713;42.680;23.310;2023-03-11T15:49:14;7.67;;;5.40;;
5379;SDS011;2713;42.680;23.310;2023-03-11T15:51:41;6.70;;;5.57;;
5379;SDS011;2713;42.680;23.310;2023-03-11T15:54:08;6.27;;;5.40;;
5379;SDS011;2713;42.680;23.310;2023-03-11T15:56:35;5.00;;;4.60;;
5379;SDS011;2713;42.680;23.310;2023-03-11T15:59:02;6.60;;;4.33;;
5379;SDS011;2713;42.680;23.310;2023-03-11T16:01:30;8.00;;;4.90;;
5379;SDS011;2713;42.680;23.310;2023-03-11T16:03:57;6.13;;;5.57;;
5379;SDS011;2713;42.680;23.310;2023-03-11T16:06:24;6.70;;;6.10;;
5379;SDS011;2713;42.680;23.310;2023-03-11T16:08:51;6.37;;;5.77;;
5379;SDS011;2713;42.680;23.310;2023-03-11T16:11:18;6.80;;;6.20;;
5379;SDS011;2713;42.680;23.310;2023-03-11T16:13:45;6.00;;;5.50;;
5379;SDS011;2713;42.680;23.310;2023-03-11T16:16:13;5.73;;;5.13;;
5379;SDS011;2713;42.680;23.310;2023-03-11T16:18:43;4.53;;;4.13;;